sensor_id;sensor_type;location;lat;lon;timestamp;temperature;humidity
2409;DHT22;8463;48.094;7.970;2023-04-24T00:00:42;12.30;38.00
2409;DHT22;8463;48.094;7.970;2023-04-24T00:03:10;12.30;38.90
2409;DHT22;8463;48.094;7.970;2023-04-24T00:05:39;12.20;38.30
2409;DHT22;8463;48.094;7.970;2023-04-24T00:08:05;12.30;38.80
2409;DHT22;8463;48.094;7.970;2023-04-24T00:10:31;12.30;38.30
2409;DHT22;8463;48.094;7.970;2023-04-24T00:12:57;12.20;39.70
2409;DHT22;8463;48.094;7.970;2023-04-24T00:15:22;12.20;38.80
2409;DHT22;8463;48.094;7.970;2023-04-24T00:17:48;12.20;39.10
2409;DHT22;8463;48.094;7.970;2023-04-24T00:20:15;12.20;39.20
2409;DHT22;8463;48.094;7.970;2023-04-24T00:22:41;12.20;38.80
2409;DHT22;8463;48.094;7.970;2023-04-24T00:25:07;12.20;38.90
2409;DHT22;8463;48.094;7.970;2023-04-24T00:27:35;12.20;39.30
2409;DHT22;8463;48.094;7.970;2023-04-24T00:30:04;12.20;38.40
2409;DHT22;8463;48.094;7.970;2023-04-24T00:32:30;12.20;38.70
2409;DHT22;8463;48.094;7.970;2023-04-24T00:34:55;12.20;38.80
2409;DHT22;8463;48.094;7.970;2023-04-24T00:37:21;12.20;38.60
2409;DHT22;8463;48.094;7.970;2023-04-24T00:39:46;12.10;39.40
2409;DHT22;8463;48.094;7.970;2023-04-24T00:42:12;12.10;38.00
2409;DHT22;8463;48.094;7.970;2023-04-24T00:44:38;12.20;38.20
2409;DHT22;8463;48.094;7.970;2023-04-24T00:47:04;12.10;38.40
2409;DHT22;8463;48.094;7.970;2023-04-24T00:49:30;12.10;38.90
2409;DHT22;8463;48.094;7.970;2023-04-24T00:51:55;12.10;38.90
2409;DHT22;8463;48.094;7.970;2023-04-24T00:54:22;12.10;38.70
2409;DHT22;8463;48.094;7.970;2023-04-24T00:56:48;12.10;38.60
2409;DHT22;8463;48.094;7.970;2023-04-24T00:59:16;12.10;38.00
2409;DHT22;8463;48.094;7.970;2023-04-24T01:01:43;12.10;38.40
2409;DHT22;8463;48.094;7.970;2023-04-24T01:04:10;12.10;38.90
2409;DHT22;8463;48.094;7.970;2023-04-24T01:06:39;12.10;39.20
2409;DHT22;8463;48.094;7.970;2023-04-24T01:09:05;12.00;38.10
2409;DHT22;8463;48.094;7.970;2023-04-24T01:11:33;12.00;38.40
2409;DHT22;8463;48.094;7.970;2023-04-24T01:13:59;12.10;38.00
2409;DHT22;8463;48.094;7.970;2023-04-24T01:16:25;12.00;37.70
2409;DHT22;8463;48.094;7.970;2023-04-24T01:18:51;11.90;39.30
2409;DHT22;8463;48.094;7.970;2023-04-24T01:21:18;12.00;38.30
2409;DHT22;8463;48.094;7.970;2023-04-24T01:23:45;12.00;37.90
2409;DHT22;8463;48.094;7.970;2023-04-24T01:26:13;12.00;38.40
2409;DHT22;8463;48.094;7.970;2023-04-24T01:28:38;11.90;38.60
2409;DHT22;8463;48.094;7.970;2023-04-24T01:31:05;11.90;39.40
2409;DHT22;8463;48.094;7.970;2023-04-24T01:33:30;11.90;39.40
2409;DHT22;8463;48.094;7.970;2023-04-24T01:35:57;11.90;39.40
2409;DHT22;8463;48.094;7.970;2023-04-24T01:38:22;12.00;40.20
2409;DHT22;8463;48.094;7.970;2023-04-24T01:40:49;11.90;39.60
2409;DHT22;8463;48.094;7.970;2023-04-24T01:43:15;11.90;39.40
2409;DHT22;8463;48.094;7.970;2023-04-24T01:45:41;11.90;39.60
2409;DHT22;8463;48.094;7.970;2023-04-24T01:48:06;11.90;39.60
2409;DHT22;8463;48.094;7.970;2023-04-24T01:50:32;11.90;39.20
2409;DHT22;8463;48.094;7.970;2023-04-24T01:52:58;11.90;39.40
2409;DHT22;8463;48.094;7.970;2023-04-24T01:55:23;11.90;38.80
2409;DHT22;8463;48.094;7.970;2023-04-24T01:57:50;11.90;39.30
2409;DHT22;8463;48.094;7.970;2023-04-24T02:00:16;11.80;39.10
2409;DHT22;8463;48.094;7.970;2023-04-24T02:02:42;11.80;39.80
2409;DHT22;8463;48.094;7.970;2023-04-24T02:05:08;11.80;40.30
2409;DHT22;8463;48.094;7.970;2023-04-24T02:07:34;11.80;40.20
2409;DHT22;8463;48.094;7.970;2023-04-24T02:09:59;11.80;40.60
2409;DHT22;8463;48.094;7.970;2023-04-24T02:12:25;11.80;41.10
2409;DHT22;8463;48.094;7.970;2023-04-24T02:14:51;11.80;41.40
2409;DHT22;8463;48.094;7.970;2023-04-24T02:17:16;11.80;41.20
2409;DHT22;8463;48.094;7.970;2023-04-24T02:19:43;11.80;40.70
2409;DHT22;8463;48.094;7.970;2023-04-24T02:22:08;11.80;41.10
2409;DHT22;8463;48.094;7.970;2023-04-24T02:24:34;11.80;41.40
2409;DHT22;8463;48.094;7.970;2023-04-24T02:26:59;11.80;41.40
2409;DHT22;8463;48.094;7.970;2023-04-24T02:29:25;11.80;41.80
2409;DHT22;8463;48.094;7.970;2023-04-24T02:31:51;11.70;44.00
2409;DHT22;8463;48.094;7.970;2023-04-24T02:34:16;11.70;44.50
2409;DHT22;8463;48.094;7.970;2023-04-24T02:36:42;11.60;44.40
2409;DHT22;8463;48.094;7.970;2023-04-24T02:39:08;11.60;45.10
2409;DHT22;8463;48.094;7.970;2023-04-24T02:41:33;11.60;46.80
2409;DHT22;8463;48.094;7.970;2023-04-24T02:43:59;11.60;46.90
2409;DHT22;8463;48.094;7.970;2023-04-24T02:46:25;11.60;47.10
2409;DHT22;8463;48.094;7.970;2023-04-24T02:48:50;11.60;47.20
2409;DHT22;8463;48.094;7.970;2023-04-24T02:51:16;11.60;46.50
2409;DHT22;8463;48.094;7.970;2023-04-24T02:53:42;11.50;48.10
2409;DHT22;8463;48.094;7.970;2023-04-24T02:56:07;11.50;47.20
2409;DHT22;8463;48.094;7.970;2023-04-24T02:58:33;11.60;47.40
2409;DHT22;8463;48.094;7.970;2023-04-24T03:00:59;11.50;46.10
2409;DHT22;8463;48.094;7.970;2023-04-24T03:03:25;11.50;45.30
2409;DHT22;8463;48.094;7.970;2023-04-24T03:05:51;11.50;45.90
2409;DHT22;8463;48.094;7.970;2023-04-24T03:08:16;11.60;45.80
2409;DHT22;8463;48.094;7.970;2023-04-24T03:10:43;11.50;46.30
2409;DHT22;8463;48.094;7.970;2023-04-24T03:13:11;11.50;46.30
2409;DHT22;8463;48.094;7.970;2023-04-24T03:15:36;11.50;46.60
2409;DHT22;8463;48.094;7.970;2023-04-24T03:18:02;11.50;46.60
2409;DHT22;8463;48.094;7.970;2023-04-24T03:20:28;11.50;45.00
2409;DHT22;8463;48.094;7.970;2023-04-24T03:22:53;11.60;45.30
2409;DHT22;8463;48.094;7.970;2023-04-24T03:25:19;11.50;46.20
2409;DHT22;8463;48.094;7.970;2023-04-24T03:27:45;11.60;46.60
2409;DHT22;8463;48.094;7.970;2023-04-24T03:30:11;11.50;46.30
2409;DHT22;8463;48.094;7.970;2023-04-24T03:32:37;11.50;48.40
2409;DHT22;8463;48.094;7.970;2023-04-24T03:35:05;11.50;47.30
2409;DHT22;8463;48.094;7.970;2023-04-24T03:37:32;11.50;49.10
2409;DHT22;8463;48.094;7.970;2023-04-24T03:39:58;11.40;49.80
2409;DHT22;8463;48.094;7.970;2023-04-24T03:42:23;11.40;50.20
2409;DHT22;8463;48.094;7.970;2023-04-24T03:44:49;11.40;50.70
2409;DHT22;8463;48.094;7.970;2023-04-24T03:47:14;11.30;50.90
2409;DHT22;8463;48.094;7.970;2023-04-24T03:49:40;11.30;51.40
2409;DHT22;8463;48.094;7.970;2023-04-24T03:52:06;11.40;50.00
2409;DHT22;8463;48.094;7.970;2023-04-24T03:54:31;11.30;49.60
2409;DHT22;8463;48.094;7.970;2023-04-24T03:56:57;11.30;50.10
2409;DHT22;8463;48.094;7.970;2023-04-24T03:59:23;11.20;51.10
2409;DHT22;8463;48.094;7.970;2023-04-24T04:01:48;11.20;52.20
2409;DHT22;8463;48.094;7.970;2023-04-24T04:04:14;11.20;54.20
2409;DHT22;8463;48.094;7.970;2023-04-24T04:06:40;11.10;52.70
2409;DHT22;8463;48.094;7.970;2023-04-24T04:09:06;11.00;54.00
2409;DHT22;8463;48.094;7.970;2023-04-24T04:11:32;10.90;55.20
2409;DHT22;8463;48.094;7.970;2023-04-24T04:13:58;10.80;59.90
2409;DHT22;8463;48.094;7.970;2023-04-24T04:16:23;10.80;61.00
2409;DHT22;8463;48.094;7.970;2023-04-24T04:18:49;10.70;61.00
2409;DHT22;8463;48.094;7.970;2023-04-24T04:21:15;10.70;61.90
2409;DHT22;8463;48.094;7.970;2023-04-24T04:23:40;10.70;62.20
2409;DHT22;8463;48.094;7.970;2023-04-24T04:26:06;10.70;63.00
2409;DHT22;8463;48.094;7.970;2023-04-24T04:28:33;10.70;63.30
2409;DHT22;8463;48.094;7.970;2023-04-24T04:30:58;10.70;62.10
2409;DHT22;8463;48.094;7.970;2023-04-24T04:33:24;10.70;63.40
2409;DHT22;8463;48.094;7.970;2023-04-24T04:35:51;10.70;63.80
2409;DHT22;8463;48.094;7.970;2023-04-24T04:38:22;10.70;65.30
2409;DHT22;8463;48.094;7.970;2023-04-24T04:40:48;10.70;65.40
2409;DHT22;8463;48.094;7.970;2023-04-24T04:43:14;10.70;65.40
2409;DHT22;8463;48.094;7.970;2023-04-24T04:45:41;10.70;65.80
2409;DHT22;8463;48.094;7.970;2023-04-24T04:48:09;10.70;65.50
2409;DHT22;8463;48.094;7.970;2023-04-24T04:50:38;10.70;66.20
2409;DHT22;8463;48.094;7.970;2023-04-24T04:53:03;10.70;66.60
2409;DHT22;8463;48.094;7.970;2023-04-24T04:55:29;10.70;67.30
2409;DHT22;8463;48.094;7.970;2023-04-24T04:57:55;10.90;73.40
2409;DHT22;8463;48.094;7.970;2023-04-24T05:00:21;11.60;63.70
2409;DHT22;8463;48.094;7.970;2023-04-24T05:02:50;11.70;61.80
2409;DHT22;8463;48.094;7.970;2023-04-24T05:05:16;11.30;61.60
2409;DHT22;8463;48.094;7.970;2023-04-24T05:07:43;10.90;65.90
2409;DHT22;8463;48.094;7.970;2023-04-24T05:10:09;10.80;67.20
2409;DHT22;8463;48.094;7.970;2023-04-24T05:12:35;10.70;67.90
2409;DHT22;8463;48.094;7.970;2023-04-24T05:15:00;10.70;68.50
2409;DHT22;8463;48.094;7.970;2023-04-24T05:17:26;10.60;68.50
2409;DHT22;8463;48.094;7.970;2023-04-24T05:19:51;10.60;68.50
2409;DHT22;8463;48.094;7.970;2023-04-24T05:22:17;10.60;68.50
2409;DHT22;8463;48.094;7.970;2023-04-24T05:24:46;10.60;68.50
2409;DHT22;8463;48.094;7.970;2023-04-24T05:27:12;10.60;68.50
2409;DHT22;8463;48.094;7.970;2023-04-24T05:29:38;10.60;68.80
2409;DHT22;8463;48.094;7.970;2023-04-24T05:32:04;10.50;67.90
2409;DHT22;8463;48.094;7.970;2023-04-24T05:34:29;10.50;68.40
2409;DHT22;8463;48.094;7.970;2023-04-24T05:36:55;10.50;68.40
2409;DHT22;8463;48.094;7.970;2023-04-24T05:39:21;10.50;68.40
2409;DHT22;8463;48.094;7.970;2023-04-24T05:41:46;10.40;65.30
2409;DHT22;8463;48.094;7.970;2023-04-24T05:44:12;10.30;65.10
2409;DHT22;8463;48.094;7.970;2023-04-24T05:46:38;10.30;66.40
2409;DHT22;8463;48.094;7.970;2023-04-24T05:49:03;10.30;62.90
2409;DHT22;8463;48.094;7.970;2023-04-24T05:51:31;10.30;63.80
2409;DHT22;8463;48.094;7.970;2023-04-24T05:53:59;10.30;64.10
2409;DHT22;8463;48.094;7.970;2023-04-24T05:56:25;10.40;63.70
2409;DHT22;8463;48.094;7.970;2023-04-24T05:58:51;10.40;64.10
2409;DHT22;8463;48.094;7.970;2023-04-24T06:01:16;10.40;64.10
2409;DHT22;8463;48.094;7.970;2023-04-24T06:03:42;10.40;63.90
2409;DHT22;8463;48.094;7.970;2023-04-24T06:06:08;10.30;62.90
2409;DHT22;8463;48.094;7.970;2023-04-24T06:08:34;10.40;64.10
2409;DHT22;8463;48.094;7.970;2023-04-24T06:11:00;10.30;63.10
2409;DHT22;8463;48.094;7.970;2023-04-24T06:13:26;10.30;62.10
2409;DHT22;8463;48.094;7.970;2023-04-24T06:15:52;10.30;60.60
2409;DHT22;8463;48.094;7.970;2023-04-24T06:18:18;10.30;60.60
2409;DHT22;8463;48.094;7.970;2023-04-24T06:20:45;10.30;59.50
2409;DHT22;8463;48.094;7.970;2023-04-24T06:23:11;10.30;57.40
2409;DHT22;8463;48.094;7.970;2023-04-24T06:25:37;10.40;56.80
2409;DHT22;8463;48.094;7.970;2023-04-24T06:28:03;10.30;56.00
2409;DHT22;8463;48.094;7.970;2023-04-24T06:30:28;10.40;53.60
2409;DHT22;8463;48.094;7.970;2023-04-24T06:32:54;10.40;53.00
2409;DHT22;8463;48.094;7.970;2023-04-24T06:35:20;10.50;52.40
2409;DHT22;8463;48.094;7.970;2023-04-24T06:37:46;10.60;51.80
2409;DHT22;8463;48.094;7.970;2023-04-24T06:40:11;10.60;53.30
2409;DHT22;8463;48.094;7.970;2023-04-24T06:42:37;10.60;54.20
2409;DHT22;8463;48.094;7.970;2023-04-24T06:45:04;10.60;54.10
2409;DHT22;8463;48.094;7.970;2023-04-24T06:47:30;10.60;55.30
2409;DHT22;8463;48.094;7.970;2023-04-24T06:49:56;10.60;57.30
2409;DHT22;8463;48.094;7.970;2023-04-24T06:52:22;10.60;59.10
2409;DHT22;8463;48.094;7.970;2023-04-24T06:54:48;10.60;59.50
2409;DHT22;8463;48.094;7.970;2023-04-24T06:57:14;10.60;59.60
2409;DHT22;8463;48.094;7.970;2023-04-24T06:59:41;10.70;59.80
2409;DHT22;8463;48.094;7.970;2023-04-24T07:02:07;10.60;57.80
2409;DHT22;8463;48.094;7.970;2023-04-24T07:04:33;10.50;54.80
2409;DHT22;8463;48.094;7.970;2023-04-24T07:06:58;10.50;54.50
2409;DHT22;8463;48.094;7.970;2023-04-24T07:09:25;10.50;55.50
2409;DHT22;8463;48.094;7.970;2023-04-24T07:11:52;10.40;54.00
2409;DHT22;8463;48.094;7.970;2023-04-24T07:14:18;10.50;54.10
2409;DHT22;8463;48.094;7.970;2023-04-24T07:16:44;10.50;54.90
2409;DHT22;8463;48.094;7.970;2023-04-24T07:19:11;10.50;52.20
2409;DHT22;8463;48.094;7.970;2023-04-24T07:21:36;10.60;50.90
2409;DHT22;8463;48.094;7.970;2023-04-24T07:24:02;10.50;46.80
2409;DHT22;8463;48.094;7.970;2023-04-24T07:26:29;10.60;47.90
2409;DHT22;8463;48.094;7.970;2023-04-24T07:28:55;10.60;46.10
2409;DHT22;8463;48.094;7.970;2023-04-24T07:31:23;10.60;43.40
2409;DHT22;8463;48.094;7.970;2023-04-24T07:33:48;10.50;43.30
2409;DHT22;8463;48.094;7.970;2023-04-24T07:36:14;10.50;42.90
2409;DHT22;8463;48.094;7.970;2023-04-24T07:38:47;10.60;41.00
2409;DHT22;8463;48.094;7.970;2023-04-24T07:41:13;10.60;38.30
2409;DHT22;8463;48.094;7.970;2023-04-24T07:43:39;10.60;37.70
2409;DHT22;8463;48.094;7.970;2023-04-24T07:46:06;10.60;39.10
2409;DHT22;8463;48.094;7.970;2023-04-24T07:48:32;10.70;36.30
2409;DHT22;8463;48.094;7.970;2023-04-24T07:51:00;10.80;35.40
2409;DHT22;8463;48.094;7.970;2023-04-24T07:53:25;10.80;33.30
2409;DHT22;8463;48.094;7.970;2023-04-24T07:55:51;10.90;33.70
2409;DHT22;8463;48.094;7.970;2023-04-24T07:58:17;10.80;35.40
2409;DHT22;8463;48.094;7.970;2023-04-24T08:00:42;10.70;34.30
2409;DHT22;8463;48.094;7.970;2023-04-24T08:03:08;10.80;34.40
2409;DHT22;8463;48.094;7.970;2023-04-24T08:05:33;10.70;32.90
2409;DHT22;8463;48.094;7.970;2023-04-24T08:07:59;10.80;34.50
2409;DHT22;8463;48.094;7.970;2023-04-24T08:10:25;10.70;37.30
2409;DHT22;8463;48.094;7.970;2023-04-24T08:12:51;10.70;32.90
2409;DHT22;8463;48.094;7.970;2023-04-24T08:15:21;10.80;33.20
2409;DHT22;8463;48.094;7.970;2023-04-24T08:17:46;10.80;32.80
2409;DHT22;8463;48.094;7.970;2023-04-24T08:20:12;10.80;29.30
2409;DHT22;8463;48.094;7.970;2023-04-24T08:22:47;10.80;29.10
2409;DHT22;8463;48.094;7.970;2023-04-24T08:25:14;10.80;27.20
2409;DHT22;8463;48.094;7.970;2023-04-24T08:27:39;10.80;27.30
2409;DHT22;8463;48.094;7.970;2023-04-24T08:30:06;10.90;28.00
2409;DHT22;8463;48.094;7.970;2023-04-24T08:32:32;10.80;28.60
2409;DHT22;8463;48.094;7.970;2023-04-24T08:34:58;10.80;28.80
2409;DHT22;8463;48.094;7.970;2023-04-24T08:37:28;10.90;25.70
2409;DHT22;8463;48.094;7.970;2023-04-24T08:39:54;10.90;28.20
2409;DHT22;8463;48.094;7.970;2023-04-24T08:42:22;10.90;26.00
2409;DHT22;8463;48.094;7.970;2023-04-24T08:44:49;10.90;25.80
2409;DHT22;8463;48.094;7.970;2023-04-24T08:47:17;10.80;21.50
2409;DHT22;8463;48.094;7.970;2023-04-24T08:49:44;10.90;18.80
2409;DHT22;8463;48.094;7.970;2023-04-24T08:52:12;11.00;20.20
2409;DHT22;8463;48.094;7.970;2023-04-24T08:54:39;11.00;15.10
2409;DHT22;8463;48.094;7.970;2023-04-24T08:57:07;11.10;16.00
2409;DHT22;8463;48.094;7.970;2023-04-24T08:59:38;11.20;15.60
2409;DHT22;8463;48.094;7.970;2023-04-24T09:02:04;11.30;10.10
2409;DHT22;8463;48.094;7.970;2023-04-24T09:04:37;11.40;12.70
2409;DHT22;8463;48.094;7.970;2023-04-24T09:07:04;11.40;9.70
2409;DHT22;8463;48.094;7.970;2023-04-24T09:09:34;11.30;3.90
2409;DHT22;8463;48.094;7.970;2023-04-24T09:12:01;11.20;6.00
2409;DHT22;8463;48.094;7.970;2023-04-24T09:14:27;11.10;5.40
2409;DHT22;8463;48.094;7.970;2023-04-24T09:16:53;11.10;4.30
2409;DHT22;8463;48.094;7.970;2023-04-24T09:19:19;11.00;3.70
2409;DHT22;8463;48.094;7.970;2023-04-24T09:21:47;10.90;2.10
2409;DHT22;8463;48.094;7.970;2023-04-24T09:24:17;10.90;2.80
2409;DHT22;8463;48.094;7.970;2023-04-24T09:26:45;10.80;1.00
2409;DHT22;8463;48.094;7.970;2023-04-24T09:29:15;10.80;1.00
2409;DHT22;8463;48.094;7.970;2023-04-24T09:31:43;10.80;1.00
2409;DHT22;8463;48.094;7.970;2023-04-24T09:34:10;10.90;1.00
2409;DHT22;8463;48.094;7.970;2023-04-24T09:36:41;10.90;1.00
2409;DHT22;8463;48.094;7.970;2023-04-24T09:39:14;10.90;1.00
2409;DHT22;8463;48.094;7.970;2023-04-24T09:41:49;11.10;1.00
2409;DHT22;8463;48.094;7.970;2023-04-24T09:44:24;11.20;1.00
2409;DHT22;8463;48.094;7.970;2023-04-24T09:46:57;11.30;1.00
2409;DHT22;8463;48.094;7.970;2023-04-24T09:49:29;11.20;1.00
2409;DHT22;8463;48.094;7.970;2023-04-24T09:52:10;11.30;1.00
2409;DHT22;8463;48.094;7.970;2023-04-24T09:54:37;11.30;1.00
2409;DHT22;8463;48.094;7.970;2023-04-24T09:57:04;11.20;1.00
2409;DHT22;8463;48.094;7.970;2023-04-24T09:59:30;11.30;1.00
2409;DHT22;8463;48.094;7.970;2023-04-24T10:01:55;11.30;1.00
2409;DHT22;8463;48.094;7.970;2023-04-24T10:04:26;11.40;1.00
2409;DHT22;8463;48.094;7.970;2023-04-24T10:06:53;11.40;1.00
2409;DHT22;8463;48.094;7.970;2023-04-24T10:09:20;11.40;1.00
2409;DHT22;8463;48.094;7.970;2023-04-24T10:11:48;11.40;1.00
2409;DHT22;8463;48.094;7.970;2023-04-24T10:14:26;11.60;1.00
2409;DHT22;8463;48.094;7.970;2023-04-24T10:17:01;11.60;1.00
2409;DHT22;8463;48.094;7.970;2023-04-24T10:19:29;11.50;1.00
2409;DHT22;8463;48.094;7.970;2023-04-24T10:21:56;11.50;1.00
2409;DHT22;8463;48.094;7.970;2023-04-24T10:24:22;11.60;1.00
2409;DHT22;8463;48.094;7.970;2023-04-24T10:26:48;11.70;1.00
2409;DHT22;8463;48.094;7.970;2023-04-24T10:29:21;11.60;1.00
2409;DHT22;8463;48.094;7.970;2023-04-24T10:31:47;11.50;1.00
2409;DHT22;8463;48.094;7.970;2023-04-24T10:34:15;11.50;1.00
2409;DHT22;8463;48.094;7.970;2023-04-24T10:36:54;11.60;1.00
2409;DHT22;8463;48.094;7.970;2023-04-24T10:39:24;11.60;1.00
2409;DHT22;8463;48.094;7.970;2023-04-24T10:41:50;11.70;1.00
2409;DHT22;8463;48.094;7.970;2023-04-24T10:44:16;11.70;1.00
2409;DHT22;8463;48.094;7.970;2023-04-24T10:46:53;11.50;1.00
2409;DHT22;8463;48.094;7.970;2023-04-24T10:49:31;11.60;1.00
2409;DHT22;8463;48.094;7.970;2023-04-24T10:52:04;11.60;1.00
2409;DHT22;8463;48.094;7.970;2023-04-24T10:54:44;11.60;1.00
2409;DHT22;8463;48.094;7.970;2023-04-24T11:00:14;11.70;1.00
2409;DHT22;8463;48.094;7.970;2023-04-24T11:02:41;11.60;1.00
2409;DHT22;8463;48.094;7.970;2023-04-24T11:05:15;11.60;1.00
2409;DHT22;8463;48.094;7.970;2023-04-24T11:08:12;11.60;1.00
2409;DHT22;8463;48.094;7.970;2023-04-24T11:10:40;11.60;1.00
2409;DHT22;8463;48.094;7.970;2023-04-24T11:13:06;11.70;1.00
2409;DHT22;8463;48.094;7.970;2023-04-24T11:15:32;11.80;1.00
2409;DHT22;8463;48.094;7.970;2023-04-24T11:17:57;11.70;1.00
2409;DHT22;8463;48.094;7.970;2023-04-24T11:20:26;11.70;1.00
2409;DHT22;8463;48.094;7.970;2023-04-24T11:22:55;11.70;1.00
2409;DHT22;8463;48.094;7.970;2023-04-24T11:25:22;11.70;1.00
2409;DHT22;8463;48.094;7.970;2023-04-24T11:28:04;11.80;1.00
2409;DHT22;8463;48.094;7.970;2023-04-24T11:30:31;11.80;1.00
2409;DHT22;8463;48.094;7.970;2023-04-24T11:33:04;11.80;1.00
2409;DHT22;8463;48.094;7.970;2023-04-24T11:35:35;11.70;1.00
2409;DHT22;8463;48.094;7.970;2023-04-24T11:38:02;11.80;1.00
2409;DHT22;8463;48.094;7.970;2023-04-24T11:40:28;11.70;1.00
2409;DHT22;8463;48.094;7.970;2023-04-24T11:42:55;11.70;1.00
2409;DHT22;8463;48.094;7.970;2023-04-24T11:45:31;11.70;1.00
2409;DHT22;8463;48.094;7.970;2023-04-24T11:47:57;11.70;1.00
2409;DHT22;8463;48.094;7.970;2023-04-24T11:50:25;11.70;1.00
2409;DHT22;8463;48.094;7.970;2023-04-24T11:52:56;11.70;1.00
2409;DHT22;8463;48.094;7.970;2023-04-24T11:57:49;11.80;1.00
2409;DHT22;8463;48.094;7.970;2023-04-24T12:00:19;11.80;1.00
2409;DHT22;8463;48.094;7.970;2023-04-24T12:02:46;11.70;1.00
2409;DHT22;8463;48.094;7.970;2023-04-24T12:05:26;11.70;1.00
2409;DHT22;8463;48.094;7.970;2023-04-24T12:07:59;11.60;1.00
2409;DHT22;8463;48.094;7.970;2023-04-24T12:10:27;11.60;1.00
2409;DHT22;8463;48.094;7.970;2023-04-24T12:12:59;11.60;1.00
2409;DHT22;8463;48.094;7.970;2023-04-24T12:15:26;11.60;1.00
2409;DHT22;8463;48.094;7.970;2023-04-24T12:17:53;11.70;1.00
2409;DHT22;8463;48.094;7.970;2023-04-24T12:20:28;11.70;1.00
2409;DHT22;8463;48.094;7.970;2023-04-24T12:22:59;11.80;1.00
2409;DHT22;8463;48.094;7.970;2023-04-24T12:25:27;11.90;1.00
2409;DHT22;8463;48.094;7.970;2023-04-24T12:28:13;11.90;1.00
2409;DHT22;8463;48.094;7.970;2023-04-24T12:30:43;12.00;1.00
2409;DHT22;8463;48.094;7.970;2023-04-24T12:33:23;11.90;1.00
2409;DHT22;8463;48.094;7.970;2023-04-24T12:35:51;11.80;1.00
2409;DHT22;8463;48.094;7.970;2023-04-24T12:38:22;11.70;1.00
2409;DHT22;8463;48.094;7.970;2023-04-24T12:41:04;11.70;1.00
2409;DHT22;8463;48.094;7.970;2023-04-24T12:43:30;11.70;1.00
2409;DHT22;8463;48.094;7.970;2023-04-24T12:45:56;11.80;1.00
2409;DHT22;8463;48.094;7.970;2023-04-24T12:48:22;11.80;1.00
2409;DHT22;8463;48.094;7.970;2023-04-24T12:50:48;11.90;1.00
2409;DHT22;8463;48.094;7.970;2023-04-24T12:53:14;12.00;1.00
2409;DHT22;8463;48.094;7.970;2023-04-24T12:55:41;12.00;1.00
2409;DHT22;8463;48.094;7.970;2023-04-24T12:58:07;12.00;1.00
2409;DHT22;8463;48.094;7.970;2023-04-24T13:00:33;12.10;1.00
2409;DHT22;8463;48.094;7.970;2023-04-24T13:02:58;12.10;1.00
2409;DHT22;8463;48.094;7.970;2023-04-24T13:05:24;12.20;1.00
2409;DHT22;8463;48.094;7.970;2023-04-24T13:07:50;12.20;1.00
2409;DHT22;8463;48.094;7.970;2023-04-24T13:10:16;12.20;1.00
2409;DHT22;8463;48.094;7.970;2023-04-24T13:12:41;12.30;1.00
2409;DHT22;8463;48.094;7.970;2023-04-24T13:15:10;12.40;1.00
2409;DHT22;8463;48.094;7.970;2023-04-24T13:17:36;12.50;1.00
2409;DHT22;8463;48.094;7.970;2023-04-24T13:20:02;12.50;1.00
2409;DHT22;8463;48.094;7.970;2023-04-24T13:22:28;12.60;1.00
2409;DHT22;8463;48.094;7.970;2023-04-24T13:24:53;12.60;1.00
2409;DHT22;8463;48.094;7.970;2023-04-24T13:27:20;12.70;1.00
2409;DHT22;8463;48.094;7.970;2023-04-24T13:29:53;12.70;1.00
2409;DHT22;8463;48.094;7.970;2023-04-24T13:32:18;12.80;1.00
2409;DHT22;8463;48.094;7.970;2023-04-24T13:34:44;12.70;1.00
2409;DHT22;8463;48.094;7.970;2023-04-24T13:37:10;12.90;1.00
2409;DHT22;8463;48.094;7.970;2023-04-24T13:39:38;12.90;1.00
2409;DHT22;8463;48.094;7.970;2023-04-24T13:42:04;12.90;1.00
2409;DHT22;8463;48.094;7.970;2023-04-24T13:44:29;12.90;1.00
2409;DHT22;8463;48.094;7.970;2023-04-24T13:46:55;12.90;1.00
2409;DHT22;8463;48.094;7.970;2023-04-24T13:49:23;13.00;1.00
2409;DHT22;8463;48.094;7.970;2023-04-24T13:51:51;13.10;1.00
2409;DHT22;8463;48.094;7.970;2023-04-24T13:54:17;13.30;1.00
2409;DHT22;8463;48.094;7.970;2023-04-24T13:56:43;13.30;1.00
2409;DHT22;8463;48.094;7.970;2023-04-24T13:59:09;13.40;1.00
2409;DHT22;8463;48.094;7.970;2023-04-24T14:01:35;13.50;1.00
2409;DHT22;8463;48.094;7.970;2023-04-24T14:04:01;13.60;1.00
2409;DHT22;8463;48.094;7.970;2023-04-24T14:06:27;13.70;1.00
2409;DHT22;8463;48.094;7.970;2023-04-24T14:08:52;13.70;1.00
2409;DHT22;8463;48.094;7.970;2023-04-24T14:11:19;13.50;1.00
2409;DHT22;8463;48.094;7.970;2023-04-24T14:13:45;13.40;1.00
2409;DHT22;8463;48.094;7.970;2023-04-24T14:16:11;13.40;1.00
2409;DHT22;8463;48.094;7.970;2023-04-24T14:18:37;13.20;1.00
2409;DHT22;8463;48.094;7.970;2023-04-24T14:21:03;13.10;1.00
2409;DHT22;8463;48.094;7.970;2023-04-24T14:23:29;13.00;1.00
2409;DHT22;8463;48.094;7.970;2023-04-24T14:26:24;13.10;1.00
2409;DHT22;8463;48.094;7.970;2023-04-24T14:28:50;13.00;1.00
2409;DHT22;8463;48.094;7.970;2023-04-24T14:31:16;12.90;1.00
2409;DHT22;8463;48.094;7.970;2023-04-24T14:33:41;12.90;1.00
2409;DHT22;8463;48.094;7.970;2023-04-24T14:36:07;12.90;1.00
2409;DHT22;8463;48.094;7.970;2023-04-24T14:38:33;12.90;1.00
2409;DHT22;8463;48.094;7.970;2023-04-24T14:40:59;12.90;1.00
2409;DHT22;8463;48.094;7.970;2023-04-24T14:43:25;12.80;1.00
2409;DHT22;8463;48.094;7.970;2023-04-24T14:45:50;12.80;1.00
2409;DHT22;8463;48.094;7.970;2023-04-24T14:48:16;12.60;1.00
2409;DHT22;8463;48.094;7.970;2023-04-24T14:50:43;12.40;1.00
2409;DHT22;8463;48.094;7.970;2023-04-24T14:53:08;12.30;1.00
2409;DHT22;8463;48.094;7.970;2023-04-24T14:55:34;12.40;2.30
2409;DHT22;8463;48.094;7.970;2023-04-24T14:58:02;12.70;1.00
2409;DHT22;8463;48.094;7.970;2023-04-24T15:00:27;12.80;1.00
2409;DHT22;8463;48.094;7.970;2023-04-24T15:02:53;12.80;1.00
2409;DHT22;8463;48.094;7.970;2023-04-24T15:05:22;12.70;1.00
2409;DHT22;8463;48.094;7.970;2023-04-24T15:07:49;12.70;1.00
2409;DHT22;8463;48.094;7.970;2023-04-24T15:10:15;12.70;1.00
2409;DHT22;8463;48.094;7.970;2023-04-24T15:12:44;12.70;1.00
2409;DHT22;8463;48.094;7.970;2023-04-24T15:15:10;12.70;1.00
2409;DHT22;8463;48.094;7.970;2023-04-24T15:17:36;12.70;1.00
2409;DHT22;8463;48.094;7.970;2023-04-24T15:20:04;12.80;1.00
2409;DHT22;8463;48.094;7.970;2023-04-24T15:22:31;12.90;1.00
2409;DHT22;8463;48.094;7.970;2023-04-24T15:24:57;13.00;1.00
2409;DHT22;8463;48.094;7.970;2023-04-24T15:27:23;13.10;1.00
2409;DHT22;8463;48.094;7.970;2023-04-24T15:29:48;13.00;1.00
2409;DHT22;8463;48.094;7.970;2023-04-24T15:32:14;13.10;1.00
2409;DHT22;8463;48.094;7.970;2023-04-24T15:34:40;13.00;1.00
2409;DHT22;8463;48.094;7.970;2023-04-24T15:37:06;13.00;1.00
2409;DHT22;8463;48.094;7.970;2023-04-24T15:39:31;12.90;1.00
2409;DHT22;8463;48.094;7.970;2023-04-24T15:41:57;12.80;1.00
2409;DHT22;8463;48.094;7.970;2023-04-24T15:44:22;12.80;1.00
2409;DHT22;8463;48.094;7.970;2023-04-24T15:46:48;12.80;1.00
2409;DHT22;8463;48.094;7.970;2023-04-24T15:49:14;12.80;1.00
2409;DHT22;8463;48.094;7.970;2023-04-24T15:51:39;12.70;1.00
2409;DHT22;8463;48.094;7.970;2023-04-24T15:54:05;12.70;1.00
2409;DHT22;8463;48.094;7.970;2023-04-24T15:56:31;12.70;1.00
2409;DHT22;8463;48.094;7.970;2023-04-24T15:58:57;12.70;1.00
2409;DHT22;8463;48.094;7.970;2023-04-24T16:01:23;12.70;1.00
2409;DHT22;8463;48.094;7.970;2023-04-24T16:03:48;12.70;1.00
2409;DHT22;8463;48.094;7.970;2023-04-24T16:06:14;12.70;1.00
2409;DHT22;8463;48.094;7.970;2023-04-24T16:08:40;12.70;1.00
2409;DHT22;8463;48.094;7.970;2023-04-24T16:11:06;12.70;1.00
2409;DHT22;8463;48.094;7.970;2023-04-24T16:13:31;12.80;1.00